KTVC/TVC METAR and TAF weather

Enter ICAO airport designator
Station Type Date Time Source
KTVC METAR 2022/01/27 23:53 UTC NOAA

KTVC 272353Z 35012G19KT 9SM -SN OVC035 M06/M13 A3015 RMK AO2 PK WND 32030/2310 SLP222 4/009 P0000 60000 T10611128 11022 21061 51047


Station Type Date Time Source
KTVC Decoded METAR 2022/01/27 23:53 UTC NOAA

CHERRY CAPITAL AIRPORT, MI, United States (KTVC) 44-44N 085-34W 190M
Jan 27, 2022 - 06:53 PM EST / 2022.01.27 2353 UTC
Wind: from the N (350 degrees) at 14 MPH (12 KT) gusting to 22 MPH (19 KT):0
Visibility: 9 mile(s):0
Sky conditions: overcast
Weather: light snow; 9 inches of snow on ground
Precipitation last hour: A trace
Temperature: 21.0 F (-6.1 C)
Windchill: 8 F (-13 C):1
Dew Point: 9.0 F (-12.8 C)
Relative Humidity: 59%
Pressure (altimeter): 30.15 in. Hg (1020 hPa)
Pressure tendency: 0.14 inches (4.7 hPa) higher than three hours ago
ob: KTVC 272353Z 35012G19KT 9SM -SN OVC035 M06/M13 A3015 RMK AO2 PK WND 32030/2310 SLP222 4/009 P0000 60000 T10611128 11022 21061 51047
cycle: 0

Station Type Date Time Source
KTVC TAF 2022/01/27 20:06 UTC NOAA

TAF
AMD KTVC 272004Z 2720/2818 34015G25KT 6SM -SHSN SCT015 OVC025
TEMPO 2720/2724 3SM -SHSN BKN015
FM280300 01007KT 5SM -SHSN OVC030
FM281200 VRB04KT P6SM VCSH BKN040

Example: see airport list